Time;durP1;ratioP1;P1;durP2;ratioP2;P2;SDS_P1;SDS_P2;PMS_P1;PMS_P2;Temp;Humidity;BMP_temperature;BMP_pressure;BME280_temperature;BME280_humidity;BME280_pressure;Samples;Min_cycle;Max_cycle;Signal;HPM_P1;HPM_P2
2022/10/04 00:01:47;;;;;;;13.02;2.65;;;;;;;12.25;100.00;98774.69;4216134;34;20078;-76
2022/10/04 00:04:32;;;;;;;11.65;3.35;;;;;;;12.27;100.00;98726.66;4197423;34;20065;-76
2022/10/04 00:07:05;;;;;;;11.95;3.08;;;;;;;12.11;100.00;98706.94;4226345;34;20574;-75
2022/10/04 00:09:46;;;;;;;8.65;2.97;;;;;;;12.56;100.00;98761.25;4223346;34;20064;-78
2022/10/04 00:12:26;;;;;;;14.93;3.10;;;;;;;12.26;100.00;98751.22;4226033;34;20035;-75
2022/10/04 00:14:58;;;;;;;11.95;3.50;;;;;;;11.32;100.00;98594.81;4236104;33;20073;-75
2022/10/04 00:17:29;;;;;;;11.80;2.92;;;;;;;12.40;100.00;98744.22;4237062;33;20417;-75
2022/10/04 00:19:56;;;;;;;25.17;4.25;;;;;;;12.43;100.00;98705.87;4238856;33;20061;-75
2022/10/04 00:22:28;;;;;;;7.95;3.05;;;;;;;12.49;100.00;98752.59;4270336;33;20402;-75
2022/10/04 00:25:18;;;;;;;8.63;2.85;;;;;;;12.70;100.00;98748.00;4293664;33;20048;-79
2022/10/04 00:28:13;;;;;;;10.13;2.87;;;;;;;12.52;100.00;98757.44;4295936;33;20433;-75
2022/10/04 00:30:40;;;;;;;10.50;3.05;;;;;;;12.67;100.00;98743.16;4285763;33;20063;-74
2022/10/04 00:33:06;;;;;;;8.07;3.03;;;;;;;12.65;100.00;98729.09;4294842;33;20431;-74
2022/10/04 00:35:34;;;;;;;9.48;2.65;;;;;;;12.43;100.00;98715.84;4305178;33;20400;-75
2022/10/04 00:38:05;;;;;;;7.15;2.72;;;;;;;12.63;100.00;98742.87;4305339;33;20036;-75
2022/10/04 00:40:45;;;;;;;8.15;3.85;;;;;;;12.74;100.00;98737.47;4309409;33;20045;-75
2022/10/04 00:43:28;;;;;;;11.32;2.85;;;;;;;12.45;100.00;98694.81;4312629;33;20053;-75
2022/10/04 00:46:03;;;;;;;8.98;2.97;;;;;;;12.79;100.00;98740.97;4319564;33;20453;-77
2022/10/04 00:48:37;;;;;;;10.60;4.12;;;;;;;12.57;100.00;98700.72;4286990;33;20090;-75
2022/10/04 00:51:26;;;;;;;9.18;3.65;;;;;;;12.75;100.00;98739.09;4294627;33;20032;-74
2022/10/04 00:54:05;;;;;;;14.00;3.58;;;;;;;12.21;100.00;98687.25;4294899;33;20111;-73
2022/10/04 00:56:55;;;;;;;21.40;4.40;;;;;;;12.83;100.00;98735.87;4295159;33;20034;-74
2022/10/04 00:59:37;;;;;;;19.42;3.12;;;;;;;12.38;100.00;98708.59;4294516;33;20054;-74
2022/10/04 01:02:16;;;;;;;9.35;3.53;;;;;;;12.35;100.00;98699.13;4295212;33;20378;-74
2022/10/04 01:04:45;;;;;;;18.50;3.70;;;;;;;12.26;100.00;98722.34;4293924;33;20070;-75
2022/10/04 01:07:16;;;;;;;10.90;3.25;;;;;;;12.63;100.00;98742.87;4294973;33;20087;-75
2022/10/04 01:09:52;;;;;;;15.35;3.00;;;;;;;12.78;100.00;98749.34;4295156;33;20051;-74
2022/10/04 01:12:41;;;;;;;16.25;3.85;;;;;;;12.68;100.00;98744.75;4294650;33;20161;-76
2022/10/04 01:15:20;;;;;;;27.25;6.05;;;;;;;12.72;100.00;98745.84;4293067;33;20033;-73
2022/10/04 01:18:07;;;;;;;15.25;4.68;;;;;;;12.71;100.00;98742.31;4294005;33;20075;-74
2022/10/04 01:20:58;;;;;;;12.55;3.22;;;;;;;12.54;100.00;98739.12;4322016;33;20471;-73
2022/10/04 01:26:54;;;;;;;9.38;3.60;;;;;;;12.68;100.00;98744.75;4320939;33;20450;-75
2022/10/04 01:29:27;;;;;;;17.15;3.62;;;;;;;12.94;100.00;98739.34;4323833;33;20175;-73
2022/10/04 01:31:54;;;;;;;;;;;;;;;12.57;100.00;98694.53;4323572;33;20036;-74
2022/10/04 01:34:29;;;;;;;6.75;3.37;;;;;;;12.94;100.00;98737.47;4323237;33;19973;-74
2022/10/04 01:36:59;;;;;;;18.23;3.70;;;;;;;12.67;100.00;98694.53;4315953;33;20060;-77
2022/10/04 01:39:27;;;;;;;8.25;3.12;;;;;;;12.58;100.00;98691.56;4323494;33;20185;-75
2022/10/04 01:42:23;;;;;;;4.40;3.37;;;;;;;12.86;100.00;98746.94;4323795;33;20394;-73
2022/10/04 01:44:54;;;;;;;9.63;2.90;;;;;;;12.68;100.00;98751.00;4320281;33;20068;-73
2022/10/04 01:47:24;;;;;;;5.93;2.85;;;;;;;12.53;100.00;98694.28;4323842;33;20066;-73
2022/10/04 01:49:54;;;;;;;8.30;3.33;;;;;;;12.30;100.00;98664.03;4320260;33;20385;-73
2022/10/04 01:52:42;;;;;;;11.12;3.47;;;;;;;12.50;100.00;98695.63;4312733;33;20066;-76
2022/10/04 01:55:26;;;;;;;10.82;3.67;;;;;;;12.47;100.00;98695.34;4318455;33;20082;-74
2022/10/04 01:58:17;;;;;;;20.35;3.17;;;;;;;12.78;100.00;98733.13;4322564;33;20068;-76
2022/10/04 02:01:09;;;;;;;19.45;3.53;;;;;;;12.35;100.00;98709.94;4322353;33;20028;-74
2022/10/04 02:03:44;;;;;;;14.65;3.25;;;;;;;12.46;100.00;98693.72;4322455;33;20072;-73
2022/10/04 02:06:12;;;;;;;15.77;3.00;;;;;;;12.67;100.00;98726.97;4323501;33;20041;-74
2022/10/04 02:08:48;;;;;;;16.62;3.55;;;;;;;12.49;100.00;98728.28;4323826;33;20070;-73
2022/10/04 02:11:20;;;;;;;18.42;3.30;;;;;;;12.57;100.00;98749.34;4307973;33;20080;-74
2022/10/04 02:13:53;;;;;;;11.55;3.85;;;;;;;12.45;100.00;98744.22;4309138;33;20044;-74
2022/10/04 02:16:20;;;;;;;13.15;3.70;;;;;;;12.39;100.00;98758.00;4308446;33;20037;-73
2022/10/04 02:18:49;;;;;;;14.93;3.22;;;;;;;11.97;100.00;98676.94;4310492;33;20067;-76
2022/10/04 02:21:17;;;;;;;11.60;2.87;;;;;;;12.67;100.00;98743.16;4323620;33;20493;-74
2022/10/04 02:23:46;;;;;;;17.05;3.33;;;;;;;12.38;100.00;98680.75;4323158;33;20059;-73
2022/10/04 02:26:12;;;;;;;14.23;2.90;;;;;;;12.63;100.00;98723.97;4324411;33;20386;-73
2022/10/04 02:28:39;;;;;;;15.82;3.50;;;;;;;12.57;100.00;98733.16;4278158;33;20049;-75
2022/10/04 02:33:57;;;;;;;14.32;3.33;;;;;;;12.76;100.00;98735.31;4293863;33;20219;-74
2022/10/04 02:36:28;;;;;;;11.02;3.95;;;;;;;12.69;100.00;98736.37;4294024;33;20033;-74
2022/10/04 02:39:06;;;;;;;17.58;2.72;;;;;;;12.70;100.00;98735.31;4293069;33;20077;-74
2022/10/04 02:41:56;;;;;;;11.10;3.17;;;;;;;12.72;100.00;98752.06;4292396;33;20356;-74
2022/10/04 02:44:38;;;;;;;9.43;2.92;;;;;;;12.60;100.00;98748.81;4292379;33;20390;-74
2022/10/04 02:47:12;;;;;;;9.30;3.33;;;;;;;12.66;100.00;98730.72;4296057;33;20106;-74
2022/10/04 02:49:44;;;;;;;11.32;3.17;;;;;;;12.80;100.00;98749.91;4296911;33;20062;-75
2022/10/04 02:52:19;;;;;;;12.30;3.05;;;;;;;12.94;100.00;98748.28;4295435;33;20078;-75
2022/10/04 02:55:05;;;;;;;12.88;3.70;;;;;;;12.85;100.00;98741.78;4281450;33;20074;-74
2022/10/04 02:57:41;;;;;;;16.00;3.30;;;;;;;12.35;100.00;98704.53;4279930;33;20055;-77
2022/10/04 03:00:20;;;;;;;9.27;2.42;;;;;;;12.87;100.00;98743.13;4300923;33;21043;-76
2022/10/04 03:03:09;;;;;;;18.75;3.03;;;;;;;12.60;100.00;98704.81;4311603;33;20059;-74
2022/10/04 03:05:37;;;;;;;15.35;2.72;;;;;;;12.79;100.00;98746.38;4310510;33;20070;-75
2022/10/04 03:08:05;;;;;;;12.43;3.22;;;;;;;12.86;100.00;98741.53;4296446;33;20051;-75
2022/10/04 03:10:31;;;;;;;12.32;2.75;;;;;;;12.78;100.00;98738.53;4311540;33;20186;-74
2022/10/04 03:13:05;;;;;;;16.10;3.65;;;;;;;12.84;100.00;98726.66;4310564;33;20513;-74
2022/10/04 03:15:31;;;;;;;15.60;2.87;;;;;;;12.86;100.00;98746.09;4309503;33;20053;-74
2022/10/04 03:17:59;;;;;;;8.13;2.45;;;;;;;12.64;100.00;98741.81;4310320;33;20029;-75
2022/10/04 03:20:26;;;;;;;4.20;2.20;;;;;;;12.34;100.00;98702.91;4309459;33;20117;-74
2022/10/04 03:22:55;;;;;;;17.87;4.28;;;;;;;12.18;100.00;98725.56;4309879;33;20063;-77
2022/10/04 03:25:35;;;;;;;10.68;2.10;;;;;;;12.53;100.00;98737.47;4295648;33;20881;-75
2022/10/04 03:28:02;;;;;;;11.12;2.25;;;;;;;12.59;100.00;98717.50;4296781;33;20047;-75
2022/10/04 03:30:30;;;;;;;13.85;2.60;;;;;;;12.70;100.00;98765.03;4300479;33;20040;-77
2022/10/04 03:32:58;;;;;;;5.50;2.47;;;;;;;12.56;100.00;98742.34;4310275;33;20041;-75
2022/10/04 03:35:31;;;;;;;18.15;2.65;;;;;;;12.12;100.00;98719.34;4296597;33;20168;-74
2022/10/04 03:38:01;;;;;;;17.55;3.08;;;;;;;12.53;100.00;98769.88;4276375;33;20061;-75
2022/10/04 03:40:32;;;;;;;8.02;2.15;;;;;;;12.55;100.00;98738.00;4281197;33;20041;-75
2022/10/04 03:43:01;;;;;;;6.43;1.95;;;;;;;12.81;100.00;98771.25;4267186;33;20068;-73
2022/10/04 03:45:28;;;;;;;8.05;2.55;;;;;;;12.27;100.00;98780.66;4265319;33;20045;-73
2022/10/04 03:48:03;;;;;;;10.60;3.35;;;;;;;12.71;100.00;98777.44;4256847;33;20103;-73
2022/10/04 03:50:36;;;;;;;10.90;2.60;;;;;;;12.43;100.00;98721.25;4251142;33;20083;-75
2022/10/04 03:53:09;;;;;;;6.62;2.58;;;;;;;12.60;100.00;98775.81;4252160;33;20436;-73
2022/10/04 03:55:42;;;;;;;12.18;3.20;;;;;;;12.60;100.00;98754.22;4246128;33;20050;-73
2022/10/04 03:58:11;;;;;;;9.15;2.47;;;;;;;12.33;100.00;98728.28;4239029;33;20065;-74
2022/10/04 04:00:51;;;;;;;13.27;3.03;;;;;;;12.59;100.00;98758.00;4252677;33;20057;-75
2022/10/04 04:03:19;;;;;;;12.13;2.90;;;;;;;12.13;100.00;98741.75;4252219;33;20050;-74
2022/10/04 04:05:53;;;;;;;7.15;2.70;;;;;;;12.35;100.00;98758.53;4272185;33;20034;-75
2022/10/04 04:08:31;;;;;;;14.98;4.05;;;;;;;12.68;100.00;98779.88;4250337;33;20079;-73
2022/10/04 04:11:01;;;;;;;15.52;3.10;;;;;;;12.84;100.00;98761.78;4251848;33;20034;-75
2022/10/04 04:13:59;;;;;;;16.25;4.07;;;;;;;12.34;100.00;98740.69;4256845;33;20427;-73
2022/10/04 04:16:26;;;;;;;8.48;3.05;;;;;;;12.16;100.00;98736.63;4241536;33;20462;-75
2022/10/04 04:18:58;;;;;;;14.87;3.05;;;;;;;12.54;100.00;98766.91;4239226;33;20327;-75
2022/10/04 04:21:25;;;;;;;11.38;3.28;;;;;;;12.57;100.00;98754.75;4249351;33;20050;-74
2022/10/04 04:24:04;;;;;;;9.80;3.05;;;;;;;12.13;100.00;98734.47;4239342;33;20072;-74
2022/10/04 04:26:39;;;;;;;12.02;2.67;;;;;;;12.27;100.00;98767.16;4238522;33;20034;-74
2022/10/04 04:29:16;;;;;;;8.55;2.80;;;;;;;12.47;100.00;98776.34;4238353;33;20074;-75
2022/10/04 04:31:45;;;;;;;14.73;3.17;;;;;;;12.37;100.00;98743.97;4238205;33;20050;-73
2022/10/04 04:34:43;;;;;;;8.68;2.78;;;;;;;12.46;100.00;98788.22;4244543;33;20056;-74
2022/10/04 04:37:10;;;;;;;15.27;2.95;;;;;;;12.57;100.00;98792.56;4249562;33;21041;-74
2022/10/04 04:39:36;;;;;;;20.02;3.72;;;;;;;12.60;100.00;98793.94;4277677;33;20051;-74
2022/10/04 04:42:09;;;;;;;6.82;2.53;;;;;;;12.59;100.00;98795.81;4305704;33;20079;-74
2022/10/04 04:44:51;;;;;;;10.40;2.90;;;;;;;12.67;100.00;98770.19;4308628;33;20110;-76
2022/10/04 04:47:45;;;;;;;24.30;8.00;;;;;;;12.89;100.00;98794.19;4297865;33;20044;-73
2022/10/04 04:50:21;;;;;;;14.45;3.25;;;;;;;12.93;100.00;98800.69;4321397;33;20044;-76
2022/10/04 04:53:03;;;;;;;8.95;3.30;;;;;;;12.75;100.00;98825.53;4325434;33;20062;-74
2022/10/04 04:55:53;;;;;;;11.90;3.22;;;;;;;12.83;100.00;98804.22;4321056;33;20242;-73
2022/10/04 04:58:31;;;;;;;10.30;4.05;;;;;;;12.89;100.00;98810.41;4320457;33;20104;-74
2022/10/04 05:01:02;;;;;;;12.95;3.10;;;;;;;12.07;100.00;98702.34;4320709;33;20045;-74
2022/10/04 05:03:29;;;;;;;24.75;3.15;;;;;;;12.45;100.00;98756.94;4310857;33;20160;-76
2022/10/04 05:05:59;;;;;;;7.60;3.97;;;;;;;12.87;100.00;98826.87;4292270;33;20076;-74
2022/10/04 05:08:28;;;;;;;12.88;3.55;;;;;;;12.66;100.00;98812.56;4293689;33;20053;-73
2022/10/04 05:11:04;;;;;;;14.32;3.45;;;;;;;12.85;100.00;98842.56;4288781;33;20067;-73
2022/10/04 05:13:39;;;;;;;9.00;3.62;;;;;;;12.86;100.00;98829.84;4292103;33;20184;-73
2022/10/04 05:16:13;;;;;;;9.25;3.22;;;;;;;12.75;100.00;98782.31;4292746;33;20051;-73
2022/10/04 05:18:39;;;;;;;12.25;4.40;;;;;;;12.89;100.00;98829.31;4295807;33;20041;-72
2022/10/04 05:21:41;;;;;;;9.57;2.83;;;;;;;12.63;100.00;98834.72;4295158;33;20110;-73
2022/10/04 05:24:12;;;;;;;8.95;3.15;;;;;;;12.74;100.00;98840.13;4278125;33;20423;-72
2022/10/04 05:26:41;;;;;;;7.35;3.58;;;;;;;12.75;100.00;98839.03;4273146;33;20401;-72
2022/10/04 05:29:19;;;;;;;11.30;3.22;;;;;;;12.73;100.00;98844.72;4270290;33;20066;-73
2022/10/04 05:31:57;;;;;;;7.75;3.62;;;;;;;12.64;100.00;98857.94;4264381;33;20102;-72
2022/10/04 05:34:30;;;;;;;14.07;3.55;;;;;;;12.97;100.00;98844.19;4266177;33;20051;-73
2022/10/04 05:37:21;;;;;;;17.70;5.10;;;;;;;12.84;100.00;98853.66;4244605;33;20058;-73
2022/10/04 05:39:51;;;;;;;9.77;4.25;;;;;;;12.56;100.00;98823.38;4249388;33;20124;-75
2022/10/04 05:42:28;;;;;;;8.65;4.57;;;;;;;12.88;100.00;98865.56;4250406;33;20050;-72
2022/10/04 05:44:56;;;;;;;11.48;3.97;;;;;;;12.72;100.00;98872.81;4252461;33;20169;-72
2022/10/04 05:47:29;;;;;;;13.48;4.93;;;;;;;12.67;100.00;98868.22;4266646;33;20063;-73
2022/10/04 05:49:57;;;;;;;14.38;3.87;;;;;;;12.71;100.00;98863.88;4264730;33;20122;-73
2022/10/04 05:52:29;;;;;;;16.85;5.57;;;;;;;12.93;100.00;98870.94;4264566;33;20049;-73
2022/10/04 05:55:10;;;;;;;15.00;5.15;;;;;;;12.83;100.00;98870.97;4249531;33;20089;-73
2022/10/04 05:57:40;;;;;;;15.63;4.57;;;;;;;12.89;100.00;98880.66;4233399;33;20311;-73
2022/10/04 06:00:14;;;;;;;19.27;4.07;;;;;;;12.53;100.00;98834.69;4250259;33;20058;-74
2022/10/04 06:03:02;;;;;;;15.18;3.60;;;;;;;12.91;100.00;98889.34;4262313;33;20231;-74
2022/10/04 06:05:54;;;;;;;13.45;4.20;;;;;;;12.67;100.00;98854.72;4249724;33;20080;-74
2022/10/04 06:08:41;;;;;;;11.05;3.50;;;;;;;13.07;100.00;98893.66;4249222;33;20756;-74
2022/10/04 06:11:22;;;;;;;10.52;4.55;;;;;;;12.62;100.00;98843.06;4258958;33;20068;-73
2022/10/04 06:14:03;;;;;;;11.73;3.83;;;;;;;13.05;100.00;98889.59;4257629;33;20047;-73
2022/10/04 06:16:42;;;;;;;18.62;4.18;;;;;;;13.05;100.00;98895.84;4264530;33;20068;-73
2022/10/04 06:19:35;;;;;;;11.25;3.75;;;;;;;13.24;100.00;98892.59;4265153;33;20416;-73
2022/10/04 06:22:16;;;;;;;4.85;3.25;;;;;;;13.12;100.00;98910.97;4266996;33;20063;-73
2022/10/04 06:24:47;;;;;;;11.43;4.65;;;;;;;13.01;100.00;98908.25;4267367;33;20356;-72
2022/10/04 06:27:25;;;;;;;11.52;4.03;;;;;;;12.74;100.00;98859.03;4280195;33;20033;-73
2022/10/04 06:30:12;;;;;;;11.23;4.25;;;;;;;13.02;100.00;98907.19;4326108;33;20453;-73
2022/10/04 06:32:54;;;;;;;10.40;4.10;;;;;;;13.14;100.00;98916.91;4326218;33;20066;-74
2022/10/04 06:35:23;;;;;;;18.70;3.97;;;;;;;13.15;100.00;98932.06;4326564;33;20048;-73
2022/10/04 06:38:14;;;;;;;12.88;3.72;;;;;;;12.81;100.00;98889.31;4328163;33;20386;-73
2022/10/04 06:40:58;;;;;;;9.77;3.70;;;;;;;13.13;100.00;98929.62;4328283;33;20086;-73
2022/10/04 06:43:58;;;;;;;10.40;3.30;;;;;;;12.77;100.00;98899.84;4327330;33;20045;-73
2022/10/04 06:46:49;;;;;;;7.85;3.72;;;;;;;12.86;100.00;98910.91;4327703;33;20435;-73
2022/10/04 06:49:27;;;;;;;7.57;3.47;;;;;;;13.15;100.00;98934.78;4326009;33;20080;-77
2022/10/04 06:52:08;;;;;;;9.63;3.22;;;;;;;13.25;100.00;98942.88;4328263;33;20052;-73
2022/10/04 06:55:03;;;;;;;6.95;3.40;;;;;;;13.35;100.00;98948.31;4314517;33;20063;-73
2022/10/04 06:58:01;;;;;;;9.13;3.03;;;;;;;13.36;100.00;98939.13;4316970;33;20074;-73
2022/10/04 07:00:34;;;;;;;11.50;3.72;;;;;;;13.30;100.00;98956.41;4320564;33;20078;-74
2022/10/04 07:03:08;;;;;;;4.97;2.72;;;;;;;13.34;100.00;98952.13;4321698;33;20079;-73
2022/10/04 07:05:59;;;;;;;12.37;3.58;;;;;;;13.34;100.00;98957.53;4323251;33;20040;-74
2022/10/04 07:08:46;;;;;;;12.32;2.87;;;;;;;13.35;100.00;98964.53;4322285;33;20602;-72
2022/10/04 07:11:25;;;;;;;6.80;2.60;;;;;;;13.37;100.00;98975.09;4321016;33;20467;-73
2022/10/04 07:14:14;;;;;;;4.93;2.83;;;;;;;13.35;100.00;98953.72;4324548;33;20142;-73
2022/10/04 07:16:48;;;;;;;4.22;2.72;;;;;;;13.54;100.00;98972.13;4323388;33;20393;-73
2022/10/04 07:19:33;;;;;;;15.43;4.18;;;;;;;13.27;100.00;98968.59;4324515;33;20040;-73
2022/10/04 07:22:06;;;;;;;6.90;2.87;;;;;;;13.09;100.00;98945.56;4325133;33;20040;-74
2022/10/04 07:24:40;;;;;;;12.48;3.50;;;;;;;13.39;100.00;98979.16;4323793;33;20048;-75
2022/10/04 07:27:12;;;;;;;13.35;3.70;;;;;;;13.38;100.00;98977.53;4294929;33;20109;-73
2022/10/04 07:29:51;;;;;;;12.75;3.12;;;;;;;13.47;100.00;98979.72;4294167;33;20071;-73
2022/10/04 07:32:26;;;;;;;11.63;4.07;;;;;;;13.13;100.00;98982.88;4304489;33;20089;-74
2022/10/04 07:35:07;;;;;;;7.30;2.87;;;;;;;13.33;100.00;98993.75;4308616;33;20037;-73
2022/10/04 07:37:52;;;;;;;6.70;2.70;;;;;;;12.92;100.00;98955.78;4296435;33;20067;-73
2022/10/04 07:40:28;;;;;;;7.35;2.62;;;;;;;13.23;100.00;98999.12;4296935;33;20965;-73
2022/10/04 07:43:07;;;;;;;12.52;3.55;;;;;;;13.30;100.00;98945.59;4295642;33;20067;-73
2022/10/04 07:45:38;;;;;;;11.20;3.20;;;;;;;13.54;100.00;99002.69;4303641;33;20025;-73
2022/10/04 07:48:08;;;;;;;9.85;3.28;;;;;;;13.68;100.00;98994.84;4296890;33;20097;-72
2022/10/04 07:50:43;;;;;;;7.62;3.30;;;;;;;13.75;100.00;98995.41;4294843;33;20029;-73
2022/10/04 07:53:19;;;;;;;5.07;3.10;;;;;;;13.38;100.00;98947.78;4295589;33;20177;-72
2022/10/04 07:56:11;;;;;;;10.15;3.83;;;;;;;13.12;100.00;98968.56;4295557;33;20081;-72
2022/10/04 07:58:52;;;;;;;6.67;3.47;;;;;;;13.47;100.00;99012.97;4315224;33;20082;-73
2022/10/04 08:01:38;;;;;;;9.93;4.25;;;;;;;13.35;100.00;98988.88;4309023;33;20090;-72
2022/10/04 08:04:19;;;;;;;9.20;3.20;;;;;;;13.63;100.00;99008.38;4301685;33;20048;-75
2022/10/04 08:07:00;;;;;;;18.05;5.45;;;;;;;13.35;100.00;98963.75;4278839;33;20062;-76
2022/10/04 08:10:24;;;;;;;10.85;2.65;;;;;;;13.74;100.00;99020.84;4291888;33;20066;-75
2022/10/04 08:12:56;;;;;;;14.85;3.45;;;;;;;13.74;100.00;99020.84;4246324;33;20065;-74
2022/10/04 08:15:29;;;;;;;4.65;2.58;;;;;;;13.54;100.00;99023.53;4243701;33;20742;-76
2022/10/04 08:17:57;;;;;;;12.48;3.35;;;;;;;13.54;100.00;99015.41;4248060;33;20080;-75
2022/10/04 08:20:38;;;;;;;3.90;2.55;;;;;;;13.68;100.00;99021.91;4242566;33;20064;-75
2022/10/04 08:23:16;;;;;;;9.02;3.60;;;;;;;13.73;100.00;99024.59;4250838;33;20362;-75
2022/10/04 08:26:01;;;;;;;6.32;3.87;;;;;;;13.46;100.00;98997.00;4252430;33;20083;-75
2022/10/04 08:32:00;;;;;;;9.07;4.55;;;;;;;13.73;100.00;99040.84;4252168;33;20056;-74
2022/10/04 08:35:04;;;;;;;6.62;2.92;;;;;;;13.60;100.00;98971.84;4250828;33;20056;-74
2022/10/04 08:37:40;;;;;;;8.70;3.70;;;;;;;14.04;100.00;99054.41;4235775;33;20062;-77
2022/10/04 08:40:44;;;;;;;8.82;3.22;;;;;;;13.95;100.00;99042.47;4240644;33;20151;-74
2022/10/04 08:43:29;;;;;;;11.75;3.62;;;;;;;13.81;100.00;99053.84;4232781;33;20038;-76
2022/10/04 08:46:04;;;;;;;15.48;4.37;;;;;;;13.75;100.00;99044.12;4292434;33;20240;-74
2022/10/04 08:48:49;;;;;;;5.82;3.60;;;;;;;13.84;100.00;99051.69;4294397;33;20051;-74
2022/10/04 08:51:33;;;;;;;9.18;3.53;;;;;;;13.76;100.00;99072.78;4303635;33;20082;-73
2022/10/04 08:54:22;;;;;;;9.15;3.60;;;;;;;13.90;100.00;99056.81;4315144;33;20432;-74
2022/10/04 08:57:10;;;;;;;4.87;3.05;;;;;;;13.94;100.00;99057.09;4322665;33;20062;-74
2022/10/04 09:00:00;;;;;;;9.85;4.00;;;;;;;13.84;100.00;99073.34;4322986;33;20123;-75
2022/10/04 09:03:06;;;;;;;4.90;2.70;;;;;;;13.66;100.00;99037.59;4307826;33;20167;-74
2022/10/04 09:06:10;;;;;;;5.05;2.75;;;;;;;14.12;100.00;99075.50;4285255;33;20456;-75
2022/10/04 09:09:10;;;;;;;5.65;2.47;;;;;;;14.11;100.00;99067.66;4291570;33;20512;-76
2022/10/04 09:12:12;;;;;;;7.93;3.20;;;;;;;14.19;100.00;99069.00;4294283;33;20107;-74
2022/10/04 09:15:14;;;;;;;12.07;3.90;;;;;;;13.91;100.00;99069.28;4294067;33;20203;-77
2022/10/04 09:17:46;;;;;;;9.98;4.25;;;;;;;13.56;100.00;99034.88;4284736;33;20151;-74
2022/10/04 09:20:12;;;;;;;5.57;3.92;;;;;;;13.51;100.00;99037.59;4293472;33;20041;-74
2022/10/04 09:22:58;;;;;;;9.93;3.97;;;;;;;13.87;100.00;99084.44;4278889;33;20037;-74
2022/10/04 09:25:47;;;;;;;5.55;3.37;;;;;;;13.74;100.00;99034.38;4280018;33;20042;-74
2022/10/04 09:28:52;;;;;;;8.45;4.00;;;;;;;14.13;100.00;99070.87;4279732;33;20030;-75
2022/10/04 09:31:34;;;;;;;11.07;5.15;;;;;;;14.02;100.00;99048.41;4278893;33;20075;-75
2022/10/04 09:34:22;;;;;;;5.03;3.95;;;;;;;14.00;100.00;99085.78;4278008;33;20053;-75
2022/10/04 09:37:23;;;;;;;6.18;3.90;;;;;;;13.97;100.00;99091.72;4301443;33;20440;-75
2022/10/04 09:40:19;;;;;;;15.88;3.83;;;;;;;14.47;100.00;99091.97;4307845;33;20033;-75
2022/10/04 09:42:57;;;;;;;14.70;3.08;;;;;;;14.12;100.00;99036.75;4305040;33;20070;-74
2022/10/04 09:45:36;;;;;;;15.70;3.20;;;;;;;14.30;100.00;99047.03;4306859;33;20070;-74
2022/10/04 09:48:23;;;;;;;6.55;2.80;;;;;;;14.54;100.00;99049.97;4308716;33;20070;-77
2022/10/04 09:51:06;;;;;;;11.40;3.55;;;;;;;14.47;100.00;99098.22;4309028;33;20047;-74
2022/10/04 09:54:00;;;;;;;9.30;2.72;;;;;;;14.23;100.00;99080.91;4309196;33;20414;-73
2022/10/04 09:56:53;;;;;;;8.20;2.97;;;;;;;14.56;100.00;99109.28;4306053;33;20137;-75
2022/10/04 09:59:36;;;;;;;6.37;3.10;;;;;;;14.75;100.00;99108.75;4307036;33;20078;-75
2022/10/04 10:02:13;;;;;;;7.82;3.03;;;;;;;14.52;100.00;99109.03;4308068;33;20025;-75
2022/10/04 10:05:16;;;;;;;9.75;3.47;;;;;;;14.33;100.00;99105.28;4305911;33;20507;-76
2022/10/04 10:08:30;;;;;;;4.97;2.17;;;;;;;14.87;100.00;99114.66;4308055;33;20054;-75
2022/10/04 10:14:27;;;;;;;6.05;2.30;;;;;;;14.58;100.00;99130.69;4308632;33;20339;-75
2022/10/04 10:17:14;;;;;;;8.20;2.37;;;;;;;14.46;100.00;99139.91;4306542;33;20044;-75
2022/10/04 10:20:07;;;;;;;7.65;2.37;;;;;;;14.46;100.00;99123.66;4308944;33;20041;-75
2022/10/04 10:23:05;;;;;;;10.93;2.62;;;;;;;14.55;100.00;99094.13;4307453;33;20045;-74
2022/10/04 10:25:57;;;;;;;6.18;2.42;;;;;;;14.97;100.00;99138.25;4307155;33;20026;-73
2022/10/04 10:29:02;;;;;;;7.22;2.10;;;;;;;14.38;100.00;99104.47;4303787;33;20057;-73
2022/10/04 10:31:33;;;;;;;3.20;2.12;;;;;;;15.08;100.00;99150.66;4305510;33;20390;-74
2022/10/04 10:34:38;;;;;;;7.37;2.17;;;;;;;14.69;100.00;99143.16;4307960;33;20033;-73
2022/10/04 10:37:34;;;;;;;7.07;2.58;;;;;;;15.07;100.00;99162.59;4296182;33;20044;-73
2022/10/04 10:40:13;;;;;;;3.00;2.60;;;;;;;14.56;100.00;99105.78;4300324;33;20378;-77
2022/10/04 10:42:58;;;;;;;6.68;2.22;;;;;;;15.01;100.00;99155.56;4310926;33;20087;-75
2022/10/04 10:45:44;;;;;;;8.48;2.35;;;;;;;15.13;100.00;99147.13;4307999;33;20048;-72
2022/10/04 10:48:26;;;;;;;5.70;2.10;;;;;;;14.95;100.00;99167.50;4304480;33;20071;-72
2022/10/04 10:51:34;;;;;;;5.57;2.12;;;;;;;14.70;100.00;99106.88;4306822;33;20082;-74
2022/10/04 10:54:49;;;;;;;3.75;1.70;;;;;;;15.14;100.00;99154.16;4303379;33;20033;-73
2022/10/04 10:57:34;;;;;;;11.12;2.50;;;;;;;14.93;100.00;99169.69;4260841;33;20042;-74
2022/10/04 11:00:32;;;;;;;6.35;2.17;;;;;;;15.06;100.00;99169.09;4259424;33;20076;-75
2022/10/04 11:03:17;;;;;;;4.78;1.85;;;;;;;15.15;100.00;99172.88;4245004;33;20065;-74
2022/10/04 11:06:40;;;;;;;4.65;1.70;;;;;;;15.19;100.00;99163.09;4261464;33;20478;-75
2022/10/04 11:09:26;;;;;;;6.62;1.75;;;;;;;15.62;100.00;99168.88;4223184;33;20077;-73
2022/10/04 11:12:17;;;;;;;2.67;1.50;;;;;;;15.50;100.00;99176.53;4224539;33;20054;-74
2022/10/04 11:14:54;;;;;;;3.25;1.65;;;;;;;15.23;100.00;99190.47;4222487;33;20059;-74
2022/10/04 11:17:43;;;;;;;3.90;1.62;;;;;;;15.23;100.00;99190.47;4203973;34;20047;-73
2022/10/04 11:20:51;;;;;;;1.95;1.70;;;;;;;15.14;100.00;99168.56;4209759;34;20161;-74
2022/10/04 11:23:36;;;;;;;1.58;1.30;;;;;;;15.46;100.00;99191.75;4210328;34;20043;-74
2022/10/04 11:26:23;;;;;;;3.80;1.55;;;;;;;15.54;100.00;99191.19;4209619;34;20077;-73
2022/10/04 11:29:14;;;;;;;1.50;1.25;;;;;;;15.69;100.00;99178.63;4210409;34;20043;-72
2022/10/04 11:31:59;;;;;;;6.20;1.75;;;;;;;15.55;100.00;99184.66;4197811;34;20090;-73
2022/10/04 11:35:16;;;;;;;1.95;1.42;;;;;;;15.39;100.00;99183.09;4193580;34;20430;-72
2022/10/04 11:38:02;;;;;;;6.05;2.30;;;;;;;15.25;100.00;99216.25;4180283;34;20089;-73
2022/10/04 11:40:50;;;;;;;2.65;2.10;;;;;;;15.21;100.00;99179.91;4187309;34;20406;-72
2022/10/04 11:43:51;;;;;;;6.68;2.50;;;;;;;15.44;100.00;99174.94;4197803;34;20051;-72
2022/10/04 11:46:33;;;;;;;3.22;2.58;;;;;;;15.63;100.00;99199.53;4193745;34;20061;-73
2022/10/04 11:49:02;;;;;;;;;;;;;;;15.36;100.00;99205.34;4196139;34;20446;-73
2022/10/04 11:51:52;;;;;;;1.70;1.60;;;;;;;15.32;100.00;99199.69;4202816;34;20354;-72
2022/10/04 11:54:46;;;;;;;12.52;2.47;;;;;;;15.62;100.00;99209.59;4221665;33;20447;-73
2022/10/04 11:57:18;;;;;;;1.52;1.20;;;;;;;15.74;100.00;99230.16;4268177;33;20041;-72
2022/10/04 12:00:14;;;;;;;2.87;1.37;;;;;;;15.54;100.00;99218.31;4305241;33;20083;-71
2022/10/04 12:02:53;;;;;;;2.62;1.27;;;;;;;15.23;100.00;99202.13;4322608;33;20435;-72
2022/10/04 12:05:48;;;;;;;4.75;1.27;;;;;;;15.41;100.00;99214.31;4323509;33;20060;-73
2022/10/04 12:08:43;;;;;;;3.97;1.50;;;;;;;15.55;100.00;99214.50;4324617;33;20059;-73
2022/10/04 12:11:15;;;;;;;5.62;1.30;;;;;;;15.58;100.00;99208.50;4323929;33;20086;-72
2022/10/04 12:14:04;;;;;;;7.43;1.10;;;;;;;15.56;100.00;99210.69;4321546;33;20041;-72
2022/10/04 12:16:53;;;;;;;2.87;1.30;;;;;;;15.67;100.00;99222.34;4304513;33;20164;-72
2022/10/04 12:19:50;;;;;;;2.15;1.25;;;;;;;15.69;100.00;99243.75;4305305;33;20337;-75
2022/10/04 12:22:42;;;;;;;2.53;1.17;;;;;;;15.71;100.00;99223.37;4307714;33;20114;-73
2022/10/04 12:25:30;;;;;;;2.45;1.08;;;;;;;15.69;100.00;99197.62;4305937;33;20032;-72
2022/10/04 12:28:12;;;;;;;3.78;1.17;;;;;;;15.61;100.00;99221.53;4309472;33;20207;-72
2022/10/04 12:30:57;;;;;;;2.92;1.12;;;;;;;16.07;100.00;99236.81;4300360;33;20070;-72
2022/10/04 12:33:33;;;;;;;3.33;1.17;;;;;;;16.01;100.00;99232.50;4296507;33;20237;-73
2022/10/04 12:36:06;;;;;;;4.00;1.30;;;;;;;16.02;100.00;99225.16;4295680;33;20037;-72
2022/10/04 12:39:01;;;;;;;1.90;1.10;;;;;;;15.98;100.00;99244.72;4306532;33;20479;-72